sensor_id;sensor_type;location;lat;lon;timestamp;temperature;humidity
49829;DHT22;35723;51.194;5.112;2022-07-29T00:01:40;20.80;99.90
49829;DHT22;35723;51.194;5.112;2022-07-29T00:04:05;20.40;99.90
49829;DHT22;35723;51.194;5.112;2022-07-29T00:06:31;19.90;99.90
49829;DHT22;35723;51.194;5.112;2022-07-29T00:08:56;19.60;99.90
49829;DHT22;35723;51.194;5.112;2022-07-29T00:11:22;19.10;99.90
49829;DHT22;35723;51.194;5.112;2022-07-29T00:13:48;18.90;99.90
49829;DHT22;35723;51.194;5.112;2022-07-29T00:16:13;18.70;99.90
49829;DHT22;35723;51.194;5.112;2022-07-29T00:18:39;18.60;99.90
49829;DHT22;35723;51.194;5.112;2022-07-29T00:21:05;18.70;99.90
49829;DHT22;35723;51.194;5.112;2022-07-29T00:23:30;18.70;99.90
49829;DHT22;35723;51.194;5.112;2022-07-29T00:25:56;18.60;99.90
49829;DHT22;35723;51.194;5.112;2022-07-29T00:28:21;18.60;99.90
49829;DHT22;35723;51.194;5.112;2022-07-29T00:30:47;18.60;99.90
49829;DHT22;35723;51.194;5.112;2022-07-29T00:33:13;18.40;99.90
49829;DHT22;35723;51.194;5.112;2022-07-29T00:35:38;18.40;99.90
49829;DHT22;35723;51.194;5.112;2022-07-29T00:38:15;18.40;99.90
49829;DHT22;35723;51.194;5.112;2022-07-29T00:40:41;18.50;99.90
49829;DHT22;35723;51.194;5.112;2022-07-29T00:43:07;18.60;99.90
49829;DHT22;35723;51.194;5.112;2022-07-29T00:45:33;18.70;99.90
49829;DHT22;35723;51.194;5.112;2022-07-29T00:47:59;18.80;99.90
49829;DHT22;35723;51.194;5.112;2022-07-29T00:50:25;18.90;99.90
49829;DHT22;35723;51.194;5.112;2022-07-29T00:52:51;18.90;99.90
49829;DHT22;35723;51.194;5.112;2022-07-29T00:55:17;19.10;99.90
49829;DHT22;35723;51.194;5.112;2022-07-29T00:57:44;19.20;99.90
49829;DHT22;35723;51.194;5.112;2022-07-29T01:00:17;19.40;99.90
49829;DHT22;35723;51.194;5.112;2022-07-29T01:02:43;19.20;99.90
49829;DHT22;35723;51.194;5.112;2022-07-29T01:05:10;19.00;99.90
49829;DHT22;35723;51.194;5.112;2022-07-29T01:07:37;19.00;99.90
49829;DHT22;35723;51.194;5.112;2022-07-29T01:10:04;19.10;99.90
49829;DHT22;35723;51.194;5.112;2022-07-29T01:12:32;19.10;99.90
49829;DHT22;35723;51.194;5.112;2022-07-29T01:15:00;19.10;99.90
49829;DHT22;35723;51.194;5.112;2022-07-29T01:17:43;19.10;99.90
49829;DHT22;35723;51.194;5.112;2022-07-29T01:31:56;18.30;99.90
49829;DHT22;35723;51.194;5.112;2022-07-29T01:34:27;18.40;99.90
49829;DHT22;35723;51.194;5.112;2022-07-29T01:37:24;18.30;99.90
49829;DHT22;35723;51.194;5.112;2022-07-29T01:39:52;18.20;99.90
49829;DHT22;35723;51.194;5.112;2022-07-29T01:42:35;18.10;99.90
49829;DHT22;35723;51.194;5.112;2022-07-29T01:45:08;18.20;99.90
49829;DHT22;35723;51.194;5.112;2022-07-29T01:47:44;18.20;99.90
49829;DHT22;35723;51.194;5.112;2022-07-29T01:50:15;18.20;99.90
49829;DHT22;35723;51.194;5.112;2022-07-29T01:52:49;18.30;99.90
49829;DHT22;35723;51.194;5.112;2022-07-29T01:55:20;18.40;99.90
49829;DHT22;35723;51.194;5.112;2022-07-29T01:57:48;18.50;99.90
49829;DHT22;35723;51.194;5.112;2022-07-29T02:00:15;18.50;99.90
49829;DHT22;35723;51.194;5.112;2022-07-29T02:02:43;18.50;99.90
49829;DHT22;35723;51.194;5.112;2022-07-29T02:05:14;18.60;99.90
49829;DHT22;35723;51.194;5.112;2022-07-29T02:07:42;18.70;99.90
49829;DHT22;35723;51.194;5.112;2022-07-29T02:10:09;18.50;99.90
49829;DHT22;35723;51.194;5.112;2022-07-29T02:12:36;18.60;99.90
49829;DHT22;35723;51.194;5.112;2022-07-29T02:15:04;18.70;99.90
49829;DHT22;35723;51.194;5.112;2022-07-29T02:17:41;18.80;99.90
49829;DHT22;35723;51.194;5.112;2022-07-29T02:20:08;18.80;99.90
49829;DHT22;35723;51.194;5.112;2022-07-29T02:22:36;18.80;99.90
49829;DHT22;35723;51.194;5.112;2022-07-29T02:25:03;18.80;99.90
49829;DHT22;35723;51.194;5.112;2022-07-29T02:27:30;18.90;99.90
49829;DHT22;35723;51.194;5.112;2022-07-29T02:30:01;18.80;99.90
49829;DHT22;35723;51.194;5.112;2022-07-29T02:32:28;18.80;99.90
49829;DHT22;35723;51.194;5.112;2022-07-29T02:34:55;18.90;99.90
49829;DHT22;35723;51.194;5.112;2022-07-29T02:37:23;18.80;99.90
49829;DHT22;35723;51.194;5.112;2022-07-29T02:39:51;18.90;99.90
49829;DHT22;35723;51.194;5.112;2022-07-29T02:42:17;19.10;99.90
49829;DHT22;35723;51.194;5.112;2022-07-29T02:44:43;19.20;99.90
49829;DHT22;35723;51.194;5.112;2022-07-29T02:47:30;19.20;99.90
49829;DHT22;35723;51.194;5.112;2022-07-29T02:50:11;19.00;99.90
49829;DHT22;35723;51.194;5.112;2022-07-29T02:52:43;18.70;99.90
49829;DHT22;35723;51.194;5.112;2022-07-29T02:57:59;18.50;99.90
49829;DHT22;35723;51.194;5.112;2022-07-29T03:00:30;18.40;99.90
49829;DHT22;35723;51.194;5.112;2022-07-29T03:02:59;18.10;99.90
49829;DHT22;35723;51.194;5.112;2022-07-29T03:05:27;17.90;99.90
49829;DHT22;35723;51.194;5.112;2022-07-29T03:07:57;17.70;99.90
49829;DHT22;35723;51.194;5.112;2022-07-29T03:10:25;17.50;99.90
49829;DHT22;35723;51.194;5.112;2022-07-29T03:12:51;17.20;99.90
49829;DHT22;35723;51.194;5.112;2022-07-29T03:15:18;17.00;99.90
49829;DHT22;35723;51.194;5.112;2022-07-29T03:17:44;16.80;99.90
49829;DHT22;35723;51.194;5.112;2022-07-29T03:20:11;16.90;99.90
49829;DHT22;35723;51.194;5.112;2022-07-29T03:22:42;16.90;99.90
49829;DHT22;35723;51.194;5.112;2022-07-29T03:25:10;17.10;99.90
49829;DHT22;35723;51.194;5.112;2022-07-29T03:27:36;17.20;99.90
49829;DHT22;35723;51.194;5.112;2022-07-29T03:30:03;17.30;99.90
49829;DHT22;35723;51.194;5.112;2022-07-29T03:32:29;17.40;99.90
49829;DHT22;35723;51.194;5.112;2022-07-29T03:34:54;17.40;99.90
49829;DHT22;35723;51.194;5.112;2022-07-29T03:37:20;17.40;99.90
49829;DHT22;35723;51.194;5.112;2022-07-29T03:39:47;17.50;99.90
49829;DHT22;35723;51.194;5.112;2022-07-29T03:42:15;17.50;99.90
49829;DHT22;35723;51.194;5.112;2022-07-29T03:44:44;17.50;99.90
49829;DHT22;35723;51.194;5.112;2022-07-29T03:47:11;17.40;99.90
49829;DHT22;35723;51.194;5.112;2022-07-29T03:49:39;17.20;99.90
49829;DHT22;35723;51.194;5.112;2022-07-29T03:52:06;17.10;99.90
49829;DHT22;35723;51.194;5.112;2022-07-29T03:54:33;17.20;99.90
49829;DHT22;35723;51.194;5.112;2022-07-29T03:57:01;17.00;99.90
49829;DHT22;35723;51.194;5.112;2022-07-29T03:59:27;17.00;99.90
49829;DHT22;35723;51.194;5.112;2022-07-29T04:01:54;17.00;99.90
49829;DHT22;35723;51.194;5.112;2022-07-29T04:04:21;17.10;99.90
49829;DHT22;35723;51.194;5.112;2022-07-29T04:06:47;17.20;99.90
49829;DHT22;35723;51.194;5.112;2022-07-29T04:09:13;17.10;99.90
49829;DHT22;35723;51.194;5.112;2022-07-29T04:11:39;17.10;99.90
49829;DHT22;35723;51.194;5.112;2022-07-29T04:14:05;17.10;99.90
49829;DHT22;35723;51.194;5.112;2022-07-29T04:16:31;17.20;99.90
49829;DHT22;35723;51.194;5.112;2022-07-29T04:18:57;17.20;99.90
49829;DHT22;35723;51.194;5.112;2022-07-29T04:21:23;17.30;99.90
49829;DHT22;35723;51.194;5.112;2022-07-29T04:23:49;17.30;99.90
49829;DHT22;35723;51.194;5.112;2022-07-29T04:26:19;17.40;99.90
49829;DHT22;35723;51.194;5.112;2022-07-29T04:28:45;17.50;99.90
49829;DHT22;35723;51.194;5.112;2022-07-29T04:31:12;17.50;99.90
49829;DHT22;35723;51.194;5.112;2022-07-29T04:33:38;17.30;99.90
49829;DHT22;35723;51.194;5.112;2022-07-29T04:36:04;17.00;99.90
49829;DHT22;35723;51.194;5.112;2022-07-29T04:38:30;17.10;99.90
49829;DHT22;35723;51.194;5.112;2022-07-29T04:40:56;17.30;99.90
49829;DHT22;35723;51.194;5.112;2022-07-29T04:43:21;17.20;99.90
49829;DHT22;35723;51.194;5.112;2022-07-29T04:45:47;17.30;99.90
49829;DHT22;35723;51.194;5.112;2022-07-29T04:48:12;17.30;99.90
49829;DHT22;35723;51.194;5.112;2022-07-29T04:50:39;17.50;99.90
49829;DHT22;35723;51.194;5.112;2022-07-29T04:53:05;17.50;99.90
49829;DHT22;35723;51.194;5.112;2022-07-29T04:55:31;17.60;99.90
49829;DHT22;35723;51.194;5.112;2022-07-29T04:57:56;17.60;99.90
49829;DHT22;35723;51.194;5.112;2022-07-29T05:00:22;17.50;99.90
49829;DHT22;35723;51.194;5.112;2022-07-29T05:02:49;17.40;99.90
49829;DHT22;35723;51.194;5.112;2022-07-29T05:05:14;17.40;99.90
49829;DHT22;35723;51.194;5.112;2022-07-29T05:07:40;17.40;99.90
49829;DHT22;35723;51.194;5.112;2022-07-29T05:10:07;17.40;99.90
49829;DHT22;35723;51.194;5.112;2022-07-29T05:12:33;17.50;99.90
49829;DHT22;35723;51.194;5.112;2022-07-29T05:14:59;17.30;99.90
49829;DHT22;35723;51.194;5.112;2022-07-29T05:17:25;17.20;99.90
49829;DHT22;35723;51.194;5.112;2022-07-29T05:19:50;17.20;99.90
49829;DHT22;35723;51.194;5.112;2022-07-29T05:22:20;17.00;99.90
49829;DHT22;35723;51.194;5.112;2022-07-29T05:24:46;17.00;99.90
49829;DHT22;35723;51.194;5.112;2022-07-29T05:27:12;17.20;99.90
49829;DHT22;35723;51.194;5.112;2022-07-29T05:29:37;17.20;99.90
49829;DHT22;35723;51.194;5.112;2022-07-29T05:32:04;17.20;99.90
49829;DHT22;35723;51.194;5.112;2022-07-29T05:34:30;17.40;99.90
49829;DHT22;35723;51.194;5.112;2022-07-29T05:36:56;17.50;99.90
49829;DHT22;35723;51.194;5.112;2022-07-29T05:39:22;17.50;99.90
49829;DHT22;35723;51.194;5.112;2022-07-29T05:41:48;17.50;99.90
49829;DHT22;35723;51.194;5.112;2022-07-29T05:44:13;17.50;99.90
49829;DHT22;35723;51.194;5.112;2022-07-29T05:46:40;17.40;99.90
49829;DHT22;35723;51.194;5.112;2022-07-29T05:49:05;17.30;99.90
49829;DHT22;35723;51.194;5.112;2022-07-29T05:51:35;17.30;99.90
49829;DHT22;35723;51.194;5.112;2022-07-29T05:54:01;17.30;99.90
49829;DHT22;35723;51.194;5.112;2022-07-29T05:56:27;17.30;99.90
49829;DHT22;35723;51.194;5.112;2022-07-29T05:58:53;17.00;99.90
49829;DHT22;35723;51.194;5.112;2022-07-29T06:01:18;17.00;99.90
49829;DHT22;35723;51.194;5.112;2022-07-29T06:03:44;17.00;99.90
49829;DHT22;35723;51.194;5.112;2022-07-29T06:06:10;16.80;99.90
49829;DHT22;35723;51.194;5.112;2022-07-29T06:08:36;16.80;99.90
49829;DHT22;35723;51.194;5.112;2022-07-29T06:11:03;16.90;99.90
49829;DHT22;35723;51.194;5.112;2022-07-29T06:13:29;17.00;99.90
49829;DHT22;35723;51.194;5.112;2022-07-29T06:15:55;17.00;99.90
49829;DHT22;35723;51.194;5.112;2022-07-29T06:18:21;17.00;99.90
49829;DHT22;35723;51.194;5.112;2022-07-29T06:20:50;17.00;99.90
49829;DHT22;35723;51.194;5.112;2022-07-29T06:23:16;17.20;99.90
49829;DHT22;35723;51.194;5.112;2022-07-29T06:25:42;17.20;99.90
49829;DHT22;35723;51.194;5.112;2022-07-29T06:28:08;17.30;99.90
49829;DHT22;35723;51.194;5.112;2022-07-29T06:30:33;17.20;99.90
49829;DHT22;35723;51.194;5.112;2022-07-29T06:32:59;17.20;99.90
49829;DHT22;35723;51.194;5.112;2022-07-29T06:35:25;17.20;99.90
49829;DHT22;35723;51.194;5.112;2022-07-29T06:37:51;17.10;99.90
49829;DHT22;35723;51.194;5.112;2022-07-29T06:40:17;17.10;99.90
49829;DHT22;35723;51.194;5.112;2022-07-29T06:43:01;17.10;99.90
49829;DHT22;35723;51.194;5.112;2022-07-29T06:45:27;17.10;99.90
49829;DHT22;35723;51.194;5.112;2022-07-29T06:47:52;17.10;99.90
49829;DHT22;35723;51.194;5.112;2022-07-29T06:50:18;17.10;99.90
49829;DHT22;35723;51.194;5.112;2022-07-29T06:52:45;17.20;99.90
49829;DHT22;35723;51.194;5.112;2022-07-29T06:55:10;17.10;99.90
49829;DHT22;35723;51.194;5.112;2022-07-29T06:57:36;17.20;99.90
49829;DHT22;35723;51.194;5.112;2022-07-29T07:00:02;17.40;99.90
49829;DHT22;35723;51.194;5.112;2022-07-29T07:02:30;17.50;99.90
49829;DHT22;35723;51.194;5.112;2022-07-29T07:04:55;17.70;99.90
49829;DHT22;35723;51.194;5.112;2022-07-29T07:07:21;17.80;99.90
49829;DHT22;35723;51.194;5.112;2022-07-29T07:09:46;17.90;99.90
49829;DHT22;35723;51.194;5.112;2022-07-29T07:12:12;17.90;99.90
49829;DHT22;35723;51.194;5.112;2022-07-29T07:14:38;18.00;99.90
49829;DHT22;35723;51.194;5.112;2022-07-29T07:17:05;18.00;99.90
49829;DHT22;35723;51.194;5.112;2022-07-29T07:19:32;18.00;99.90
49829;DHT22;35723;51.194;5.112;2022-07-29T07:21:58;18.00;99.90
49829;DHT22;35723;51.194;5.112;2022-07-29T07:24:23;18.20;99.90
49829;DHT22;35723;51.194;5.112;2022-07-29T07:26:49;18.30;99.90
49829;DHT22;35723;51.194;5.112;2022-07-29T07:29:15;18.20;99.90
49829;DHT22;35723;51.194;5.112;2022-07-29T07:31:40;18.20;99.90
49829;DHT22;35723;51.194;5.112;2022-07-29T07:34:06;18.20;99.90
49829;DHT22;35723;51.194;5.112;2022-07-29T07:36:32;18.40;99.90
49829;DHT22;35723;51.194;5.112;2022-07-29T07:38:57;18.50;99.90
49829;DHT22;35723;51.194;5.112;2022-07-29T07:41:23;18.50;99.90
49829;DHT22;35723;51.194;5.112;2022-07-29T07:43:49;18.60;99.90
49829;DHT22;35723;51.194;5.112;2022-07-29T07:46:15;18.70;99.90
49829;DHT22;35723;51.194;5.112;2022-07-29T07:48:40;18.80;99.90
49829;DHT22;35723;51.194;5.112;2022-07-29T07:51:06;18.70;99.90
49829;DHT22;35723;51.194;5.112;2022-07-29T07:53:32;18.70;99.90
49829;DHT22;35723;51.194;5.112;2022-07-29T07:55:58;18.60;99.90
49829;DHT22;35723;51.194;5.112;2022-07-29T07:58:24;18.70;99.90
49829;DHT22;35723;51.194;5.112;2022-07-29T08:00:50;18.70;99.90
49829;DHT22;35723;51.194;5.112;2022-07-29T08:03:15;18.80;99.90
49829;DHT22;35723;51.194;5.112;2022-07-29T08:05:41;19.10;99.90
49829;DHT22;35723;51.194;5.112;2022-07-29T08:08:07;19.20;99.90
49829;DHT22;35723;51.194;5.112;2022-07-29T08:10:33;19.20;99.90
49829;DHT22;35723;51.194;5.112;2022-07-29T08:13:18;19.40;99.90
49829;DHT22;35723;51.194;5.112;2022-07-29T08:15:45;19.50;99.90
49829;DHT22;35723;51.194;5.112;2022-07-29T08:18:11;19.60;99.90
49829;DHT22;35723;51.194;5.112;2022-07-29T08:20:38;19.70;99.90
49829;DHT22;35723;51.194;5.112;2022-07-29T08:23:07;19.60;99.90
49829;DHT22;35723;51.194;5.112;2022-07-29T08:25:37;19.70;99.90
49829;DHT22;35723;51.194;5.112;2022-07-29T08:28:07;19.80;99.90
49829;DHT22;35723;51.194;5.112;2022-07-29T08:30:34;20.00;99.90
49829;DHT22;35723;51.194;5.112;2022-07-29T08:32:59;20.10;99.90
49829;DHT22;35723;51.194;5.112;2022-07-29T08:35:25;20.10;99.90
49829;DHT22;35723;51.194;5.112;2022-07-29T08:37:51;20.30;99.90
49829;DHT22;35723;51.194;5.112;2022-07-29T08:40:17;20.30;99.90
49829;DHT22;35723;51.194;5.112;2022-07-29T08:42:43;20.30;99.90
49829;DHT22;35723;51.194;5.112;2022-07-29T08:45:09;20.30;99.90
49829;DHT22;35723;51.194;5.112;2022-07-29T08:47:35;20.40;99.90
49829;DHT22;35723;51.194;5.112;2022-07-29T08:50:06;20.50;99.90
49829;DHT22;35723;51.194;5.112;2022-07-29T08:52:34;20.40;99.90
49829;DHT22;35723;51.194;5.112;2022-07-29T08:55:01;20.50;99.90
49829;DHT22;35723;51.194;5.112;2022-07-29T08:57:28;20.50;99.90
49829;DHT22;35723;51.194;5.112;2022-07-29T08:59:54;20.50;99.90
49829;DHT22;35723;51.194;5.112;2022-07-29T09:02:24;20.50;99.90
49829;DHT22;35723;51.194;5.112;2022-07-29T09:04:51;20.70;99.90
49829;DHT22;35723;51.194;5.112;2022-07-29T09:07:17;20.70;99.90
49829;DHT22;35723;51.194;5.112;2022-07-29T09:09:43;20.80;99.90
49829;DHT22;35723;51.194;5.112;2022-07-29T09:12:10;20.80;99.90
49829;DHT22;35723;51.194;5.112;2022-07-29T09:14:37;21.00;99.90
49829;DHT22;35723;51.194;5.112;2022-07-29T09:17:03;21.20;99.90
49829;DHT22;35723;51.194;5.112;2022-07-29T09:19:31;21.40;99.90
49829;DHT22;35723;51.194;5.112;2022-07-29T09:21:59;21.60;99.90
49829;DHT22;35723;51.194;5.112;2022-07-29T09:24:43;21.90;99.90
49829;DHT22;35723;51.194;5.112;2022-07-29T09:27:17;22.20;99.90
49829;DHT22;35723;51.194;5.112;2022-07-29T09:29:44;22.20;99.90
49829;DHT22;35723;51.194;5.112;2022-07-29T09:32:10;22.30;99.90
49829;DHT22;35723;51.194;5.112;2022-07-29T09:34:36;22.30;99.90
49829;DHT22;35723;51.194;5.112;2022-07-29T09:37:02;22.30;99.90
49829;DHT22;35723;51.194;5.112;2022-07-29T09:39:35;22.60;99.90
49829;DHT22;35723;51.194;5.112;2022-07-29T09:42:06;22.60;99.90
49829;DHT22;35723;51.194;5.112;2022-07-29T09:44:46;23.00;99.90
49829;DHT22;35723;51.194;5.112;2022-07-29T09:47:13;23.30;99.90
49829;DHT22;35723;51.194;5.112;2022-07-29T09:52:19;23.00;99.90
49829;DHT22;35723;51.194;5.112;2022-07-29T09:54:45;23.20;99.90
49829;DHT22;35723;51.194;5.112;2022-07-29T09:57:26;23.60;99.90
49829;DHT22;35723;51.194;5.112;2022-07-29T10:02:33;23.70;99.90
49829;DHT22;35723;51.194;5.112;2022-07-29T10:05:00;23.50;99.90
49829;DHT22;35723;51.194;5.112;2022-07-29T10:07:27;23.70;99.90
49829;DHT22;35723;51.194;5.112;2022-07-29T10:10:07;23.70;99.90
49829;DHT22;35723;51.194;5.112;2022-07-29T10:12:33;23.50;99.90
49829;DHT22;35723;51.194;5.112;2022-07-29T10:15:02;23.70;99.90
49829;DHT22;35723;51.194;5.112;2022-07-29T10:17:28;23.90;99.70
49829;DHT22;35723;51.194;5.112;2022-07-29T10:19:54;23.80;99.40
49829;DHT22;35723;51.194;5.112;2022-07-29T10:22:20;24.00;99.90
49829;DHT22;35723;51.194;5.112;2022-07-29T10:24:46;24.30;99.90
49829;DHT22;35723;51.194;5.112;2022-07-29T10:27:13;24.30;98.50
49829;DHT22;35723;51.194;5.112;2022-07-29T10:29:39;24.30;98.80
49829;DHT22;35723;51.194;5.112;2022-07-29T10:44:25;24.80;96.60
49829;DHT22;35723;51.194;5.112;2022-07-29T10:46:53;24.70;97.70
49829;DHT22;35723;51.194;5.112;2022-07-29T10:49:21;25.10;96.70
49829;DHT22;35723;51.194;5.112;2022-07-29T10:54:42;25.20;93.90
49829;DHT22;35723;51.194;5.112;2022-07-29T10:57:12;25.30;95.10
49829;DHT22;35723;51.194;5.112;2022-07-29T10:59:39;25.30;94.30
49829;DHT22;35723;51.194;5.112;2022-07-29T11:05:09;25.30;94.20
49829;DHT22;35723;51.194;5.112;2022-07-29T11:07:37;25.30;94.40
49829;DHT22;35723;51.194;5.112;2022-07-29T11:15:07;25.40;94.30
49829;DHT22;35723;51.194;5.112;2022-07-29T11:21:09;25.50;95.20
49829;DHT22;35723;51.194;5.112;2022-07-29T11:23:32;25.50;94.30
49829;DHT22;35723;51.194;5.112;2022-07-29T11:26:19;25.90;95.20
49829;DHT22;35723;51.194;5.112;2022-07-29T11:28:53;26.20;94.00
49829;DHT22;35723;51.194;5.112;2022-07-29T11:31:35;26.50;93.10
49829;DHT22;35723;51.194;5.112;2022-07-29T11:50:13;25.70;94.20
49829;DHT22;35723;51.194;5.112;2022-07-29T11:52:42;25.90;94.20
49829;DHT22;35723;51.194;5.112;2022-07-29T11:55:10;26.10;94.30
49829;DHT22;35723;51.194;5.112;2022-07-29T11:57:44;26.10;93.70
49829;DHT22;35723;51.194;5.112;2022-07-29T12:00:11;26.20;94.90
49829;DHT22;35723;51.194;5.112;2022-07-29T12:02:42;26.00;93.80
49829;DHT22;35723;51.194;5.112;2022-07-29T12:05:09;26.10;94.30
49829;DHT22;35723;51.194;5.112;2022-07-29T12:07:35;26.10;94.10
49829;DHT22;35723;51.194;5.112;2022-07-29T12:10:04;26.30;93.80
49829;DHT22;35723;51.194;5.112;2022-07-29T12:12:30;26.30;93.30
49829;DHT22;35723;51.194;5.112;2022-07-29T12:14:55;26.20;93.00
49829;DHT22;35723;51.194;5.112;2022-07-29T12:17:34;26.10;93.80
49829;DHT22;35723;51.194;5.112;2022-07-29T12:20:04;26.60;93.30
49829;DHT22;35723;51.194;5.112;2022-07-29T12:22:36;26.80;92.30
49829;DHT22;35723;51.194;5.112;2022-07-29T12:25:04;26.50;92.10
49829;DHT22;35723;51.194;5.112;2022-07-29T12:27:31;25.90;91.90
49829;DHT22;35723;51.194;5.112;2022-07-29T12:29:59;25.90;92.00
49829;DHT22;35723;51.194;5.112;2022-07-29T12:32:36;26.20;92.80
49829;DHT22;35723;51.194;5.112;2022-07-29T12:35:11;26.30;91.70
49829;DHT22;35723;51.194;5.112;2022-07-29T12:37:39;25.90;91.10
49829;DHT22;35723;51.194;5.112;2022-07-29T12:40:07;26.10;91.50
49829;DHT22;35723;51.194;5.112;2022-07-29T12:42:34;26.00;91.20
49829;DHT22;35723;51.194;5.112;2022-07-29T12:45:00;26.10;90.50
49829;DHT22;35723;51.194;5.112;2022-07-29T12:47:27;26.30;90.80
49829;DHT22;35723;51.194;5.112;2022-07-29T12:50:14;26.20;90.70
49829;DHT22;35723;51.194;5.112;2022-07-29T12:52:44;26.40;90.80
49829;DHT22;35723;51.194;5.112;2022-07-29T12:55:10;26.50;91.20
49829;DHT22;35723;51.194;5.112;2022-07-29T12:57:47;26.70;90.70
49829;DHT22;35723;51.194;5.112;2022-07-29T13:00:14;26.60;90.60
49829;DHT22;35723;51.194;5.112;2022-07-29T13:02:41;26.40;90.30
49829;DHT22;35723;51.194;5.112;2022-07-29T13:05:09;26.20;90.10
49829;DHT22;35723;51.194;5.112;2022-07-29T13:07:36;26.30;90.10
49829;DHT22;35723;51.194;5.112;2022-07-29T13:13:00;26.40;88.70
49829;DHT22;35723;51.194;5.112;2022-07-29T13:15:25;26.40;88.50
49829;DHT22;35723;51.194;5.112;2022-07-29T13:17:51;26.40;88.70
49829;DHT22;35723;51.194;5.112;2022-07-29T13:20:17;26.20;90.10
49829;DHT22;35723;51.194;5.112;2022-07-29T13:22:46;25.80;89.20
49829;DHT22;35723;51.194;5.112;2022-07-29T13:25:12;25.80;90.60
49829;DHT22;35723;51.194;5.112;2022-07-29T13:27:38;26.00;90.20
49829;DHT22;35723;51.194;5.112;2022-07-29T13:30:07;25.90;89.00
49829;DHT22;35723;51.194;5.112;2022-07-29T13:32:33;26.00;88.80
49829;DHT22;35723;51.194;5.112;2022-07-29T13:35:05;26.50;88.50
49829;DHT22;35723;51.194;5.112;2022-07-29T13:37:32;26.70;87.10
49829;DHT22;35723;51.194;5.112;2022-07-29T13:40:01;26.90;88.10
49829;DHT22;35723;51.194;5.112;2022-07-29T13:42:28;26.70;87.40
49829;DHT22;35723;51.194;5.112;2022-07-29T13:44:54;26.80;88.70
49829;DHT22;35723;51.194;5.112;2022-07-29T13:47:20;27.00;88.20
49829;DHT22;35723;51.194;5.112;2022-07-29T13:49:47;26.80;86.90
49829;DHT22;35723;51.194;5.112;2022-07-29T13:52:13;26.90;87.70
49829;DHT22;35723;51.194;5.112;2022-07-29T13:54:39;26.70;87.20
49829;DHT22;35723;51.194;5.112;2022-07-29T13:57:05;26.50;87.80
49829;DHT22;35723;51.194;5.112;2022-07-29T13:59:30;26.50;88.70
49829;DHT22;35723;51.194;5.112;2022-07-29T14:01:56;26.30;88.40
49829;DHT22;35723;51.194;5.112;2022-07-29T14:04:22;26.20;88.10
49829;DHT22;35723;51.194;5.112;2022-07-29T14:06:51;26.30;88.70
49829;DHT22;35723;51.194;5.112;2022-07-29T14:09:16;26.40;88.40
49829;DHT22;35723;51.194;5.112;2022-07-29T14:11:47;26.60;89.70
49829;DHT22;35723;51.194;5.112;2022-07-29T14:14:15;26.40;87.10
49829;DHT22;35723;51.194;5.112;2022-07-29T14:16:40;26.40;88.80
49829;DHT22;35723;51.194;5.112;2022-07-29T14:19:06;26.20;88.00
49829;DHT22;35723;51.194;5.112;2022-07-29T14:21:32;26.30;88.70
49829;DHT22;35723;51.194;5.112;2022-07-29T14:23:58;26.10;88.20
49829;DHT22;35723;51.194;5.112;2022-07-29T14:26:23;26.20;89.70
49829;DHT22;35723;51.194;5.112;2022-07-29T14:28:49;26.20;87.90
49829;DHT22;35723;51.194;5.112;2022-07-29T14:31:15;26.10;87.70
49829;DHT22;35723;51.194;5.112;2022-07-29T14:33:41;26.10;87.20
49829;DHT22;35723;51.194;5.112;2022-07-29T14:36:06;26.20;88.50
49829;DHT22;35723;51.194;5.112;2022-07-29T14:38:33;25.90;87.30
49829;DHT22;35723;51.194;5.112;2022-07-29T14:40:58;26.20;88.40
49829;DHT22;35723;51.194;5.112;2022-07-29T14:43:24;26.30;87.00
49829;DHT22;35723;51.194;5.112;2022-07-29T14:45:49;26.40;88.70
49829;DHT22;35723;51.194;5.112;2022-07-29T14:48:15;26.40;85.70
49829;DHT22;35723;51.194;5.112;2022-07-29T14:50:41;26.20;85.70
49829;DHT22;35723;51.194;5.112;2022-07-29T14:53:06;26.30;85.60
49829;DHT22;35723;51.194;5.112;2022-07-29T14:55:32;26.30;85.40
49829;DHT22;35723;51.194;5.112;2022-07-29T14:57:58;26.40;86.60
49829;DHT22;35723;51.194;5.112;2022-07-29T15:00:24;26.60;86.20
49829;DHT22;35723;51.194;5.112;2022-07-29T15:02:50;26.60;86.00
49829;DHT22;35723;51.194;5.112;2022-07-29T15:05:16;26.60;85.30
49829;DHT22;35723;51.194;5.112;2022-07-29T15:07:41;26.60;86.30
49829;DHT22;35723;51.194;5.112;2022-07-29T15:10:07;26.60;84.60
49829;DHT22;35723;51.194;5.112;2022-07-29T15:12:33;26.40;84.70
49829;DHT22;35723;51.194;5.112;2022-07-29T15:14:59;26.50;86.40
49829;DHT22;35723;51.194;5.112;2022-07-29T15:17:25;26.50;84.50
49829;DHT22;35723;51.194;5.112;2022-07-29T15:19:50;26.50;86.20
49829;DHT22;35723;51.194;5.112;2022-07-29T15:22:16;26.50;84.70
49829;DHT22;35723;51.194;5.112;2022-07-29T15:24:42;26.50;83.30
49829;DHT22;35723;51.194;5.112;2022-07-29T15:27:08;26.20;83.00
49829;DHT22;35723;51.194;5.112;2022-07-29T15:29:40;26.00;84.80
49829;DHT22;35723;51.194;5.112;2022-07-29T15:32:06;25.90;84.90
49829;DHT22;35723;51.194;5.112;2022-07-29T15:34:31;26.00;85.80
49829;DHT22;35723;51.194;5.112;2022-07-29T15:36:57;25.90;85.40
49829;DHT22;35723;51.194;5.112;2022-07-29T15:39:22;25.70;84.30
49829;DHT22;35723;51.194;5.112;2022-07-29T15:41:48;25.70;84.70
49829;DHT22;35723;51.194;5.112;2022-07-29T15:44:14;25.60;84.60
49829;DHT22;35723;51.194;5.112;2022-07-29T15:46:40;25.60;85.50
49829;DHT22;35723;51.194;5.112;2022-07-29T15:49:24;25.90;86.90
49829;DHT22;35723;51.194;5.112;2022-07-29T15:51:57;25.80;84.90
49829;DHT22;35723;51.194;5.112;2022-07-29T15:54:22;25.70;84.30
49829;DHT22;35723;51.194;5.112;2022-07-29T15:56:48;25.70;84.60
49829;DHT22;35723;51.194;5.112;2022-07-29T15:59:14;25.80;85.90
49829;DHT22;35723;51.194;5.112;2022-07-29T16:01:39;25.80;85.60
49829;DHT22;35723;51.194;5.112;2022-07-29T16:04:05;25.80;85.80
49829;DHT22;35723;51.194;5.112;2022-07-29T16:06:31;25.50;86.00
49829;DHT22;35723;51.194;5.112;2022-07-29T16:08:57;25.50;86.50
49829;DHT22;35723;51.194;5.112;2022-07-29T16:11:23;25.50;87.40
49829;DHT22;35723;51.194;5.112;2022-07-29T16:13:48;25.40;87.20
49829;DHT22;35723;51.194;5.112;2022-07-29T16:16:14;25.60;87.80
49829;DHT22;35723;51.194;5.112;2022-07-29T16:18:41;25.60;86.80
49829;DHT22;35723;51.194;5.112;2022-07-29T16:21:06;25.60;87.60
49829;DHT22;35723;51.194;5.112;2022-07-29T16:23:32;25.70;87.20
49829;DHT22;35723;51.194;5.112;2022-07-29T16:25:57;25.70;87.10
49829;DHT22;35723;51.194;5.112;2022-07-29T16:28:23;25.80;87.00
49829;DHT22;35723;51.194;5.112;2022-07-29T16:30:49;25.60;87.10
49829;DHT22;35723;51.194;5.112;2022-07-29T16:33:15;25.50;87.40
49829;DHT22;35723;51.194;5.112;2022-07-29T16:35:41;25.30;87.20
49829;DHT22;35723;51.194;5.112;2022-07-29T16:38:06;25.50;88.10